Yukon, Pennsylvania
Current Conditions -  °F | °C
As of 10:53 PM on Tuesday 21 Oct 2014 (Local Time) from KAGC Reporting Station
Light Rain Light Rain  
Wind Chill:   Ceiling: 1000
Heat Index:   Visibility: 6mi
Dew Point:   Wind: 7mph
Humidity: 83%   Direction: 320°NW
Pressure: 30.01"   Gusts: NA
Location:  40.21°N, 79.68°W
Report Text: KAGC 220253Z 32006KT 6SM -RA OVC010 09/06 A3001 RMK AO2 RAB27 SLP169 P0001 60001 T00890061 51015
Loading
Personal Weather Stations






























Interactive Weather Map
Tropical Storm Tracking
New forecast layout! Learn more

10-Day Weather Forecast

Advertisements
Track Severe Weather on mobile